Terminal Aerodrome Forecast
Issued by NWS

Home | Current Version | Previous Version | Text Only | Print | Product List | Glossary On
Versions: 1 2 3 4 5 6 7 8 9 10 11 12 13 14 15
000
FTUS43 KPAH 221913 AAA
TAFOWB
TAF AMD
KOWB 221913Z 2219/2318 22012KT P6SM BKN035
      TEMPO 2219/2221 31020G30KT 1SM +TSRA OVC015CB
     FM222100 29010KT P6SM SCT025 BKN150
     FM230300 30004KT P6SM BKN150
     FM231300 36005KT P6SM FEW250=

USA.gov is the U.S. government's official web portal to all federal, state and local government web resources and services.